sensor_id;sensor_type;location;lat;lon;timestamp;pressure;altitude;pressure_sealevel;temperature;humidity
36354;BME280;22383;51.114;13.666;2024-01-25T00:02:02;67823.63;;;5.75;100.00
36354;BME280;22383;51.114;13.666;2024-01-25T00:04:30;67827.16;;;5.73;100.00
36354;BME280;22383;51.114;13.666;2024-01-25T00:06:57;67816.28;;;5.68;100.00
36354;BME280;22383;51.114;13.666;2024-01-25T00:09:25;67817.41;;;5.69;100.00
36354;BME280;22383;51.114;13.666;2024-01-25T00:11:52;67817.41;;;5.69;100.00
36354;BME280;22383;51.114;13.666;2024-01-25T00:14:19;67822.28;;;5.71;100.00
36354;BME280;22383;51.114;13.666;2024-01-25T00:16:46;67819.25;;;5.66;100.00
36354;BME280;22383;51.114;13.666;2024-01-25T00:19:14;67815.31;;;5.62;100.00
36354;BME280;22383;51.114;13.666;2024-01-25T00:21:42;67810.06;;;5.62;100.00
36354;BME280;22383;51.114;13.666;2024-01-25T00:24:13;67823.97;;;5.73;100.00
36354;BME280;22383;51.114;13.666;2024-01-25T00:26:41;67818.53;;;5.70;100.00
36354;BME280;22383;51.114;13.666;2024-01-25T00:29:08;67826.81;;;5.75;100.00
36354;BME280;22383;51.114;13.666;2024-01-25T00:31:35;67821.72;;;5.71;100.00
36354;BME280;22383;51.114;13.666;2024-01-25T00:34:02;67816.84;;;5.68;100.00
36354;BME280;22383;51.114;13.666;2024-01-25T00:36:30;67813.63;;;5.61;100.00
36354;BME280;22383;51.114;13.666;2024-01-25T00:38:58;67821.16;;;5.70;100.00
36354;BME280;22383;51.114;13.666;2024-01-25T00:41:25;67824.75;;;5.76;100.00
36354;BME280;22383;51.114;13.666;2024-01-25T00:43:53;67824.53;;;5.73;100.00
36354;BME280;22383;51.114;13.666;2024-01-25T00:46:20;67824.19;;;5.75;100.00
36354;BME280;22383;51.114;13.666;2024-01-25T00:48:47;67819.09;;;5.71;100.00
36354;BME280;22383;51.114;13.666;2024-01-25T00:51:21;67816.63;;;5.66;100.00
36354;BME280;22383;51.114;13.666;2024-01-25T00:53:50;67820.78;;;5.72;100.00
36354;BME280;22383;51.114;13.666;2024-01-25T00:56:17;67819.66;;;5.71;100.00
36354;BME280;22383;51.114;13.666;2024-01-25T00:58:44;67826.03;;;5.72;100.00
36354;BME280;22383;51.114;13.666;2024-01-25T01:01:12;67823.78;;;5.70;100.00
36354;BME280;22383;51.114;13.666;2024-01-25T01:03:40;67829.25;;;5.80;100.00
36354;BME280;22383;51.114;13.666;2024-01-25T01:06:08;67831.31;;;5.79;100.00
36354;BME280;22383;51.114;13.666;2024-01-25T01:08:35;67823.41;;;5.72;100.00
36354;BME280;22383;51.114;13.666;2024-01-25T01:11:03;67820.03;;;5.69;100.00
36354;BME280;22383;51.114;13.666;2024-01-25T01:13:30;67811.75;;;5.64;100.00
36354;BME280;22383;51.114;13.666;2024-01-25T01:15:58;67813.81;;;5.63;100.00
36354;BME280;22383;51.114;13.666;2024-01-25T01:18:26;67810.63;;;5.63;100.00
36354;BME280;22383;51.114;13.666;2024-01-25T01:20:53;67818.53;;;5.70;100.00
36354;BME280;22383;51.114;13.666;2024-01-25T01:23:20;67815.72;;;5.67;100.00
36354;BME280;22383;51.114;13.666;2024-01-25T01:25:47;67818.34;;;5.67;100.00
36354;BME280;22383;51.114;13.666;2024-01-25T01:28:14;67816.28;;;5.68;100.00
36354;BME280;22383;51.114;13.666;2024-01-25T01:30:42;67817.22;;;5.66;100.00
36354;BME280;22383;51.114;13.666;2024-01-25T01:33:09;67813.25;;;5.63;100.00
36354;BME280;22383;51.114;13.666;2024-01-25T01:35:37;67819.25;;;5.66;100.00
36354;BME280;22383;51.114;13.666;2024-01-25T01:38:04;67817.97;;;5.69;100.00
36354;BME280;22383;51.114;13.666;2024-01-25T01:40:32;67809.88;;;5.60;100.00
36354;BME280;22383;51.114;13.666;2024-01-25T01:43:00;67811.56;;;5.61;100.00
36354;BME280;22383;51.114;13.666;2024-01-25T01:45:27;67822.09;;;5.68;100.00
36354;BME280;22383;51.114;13.666;2024-01-25T01:47:55;67814.94;;;5.64;100.00
36354;BME280;22383;51.114;13.666;2024-01-25T01:50:23;67806.47;;;5.57;100.00
36354;BME280;22383;51.114;13.666;2024-01-25T01:52:51;67814.38;;;5.64;100.00
36354;BME280;22383;51.114;13.666;2024-01-25T01:55:18;67810.06;;;5.62;100.00
36354;BME280;22383;51.114;13.666;2024-01-25T01:57:46;67812.31;;;5.64;100.00
36354;BME280;22383;51.114;13.666;2024-01-25T02:00:14;67806.69;;;5.59;100.00
36354;BME280;22383;51.114;13.666;2024-01-25T02:02:42;67815.53;;;5.65;100.00
36354;BME280;22383;51.114;13.666;2024-01-25T02:05:09;67809.66;;;5.57;100.00
36354;BME280;22383;51.114;13.666;2024-01-25T02:07:37;67810.06;;;5.62;100.00
36354;BME280;22383;51.114;13.666;2024-01-25T02:10:08;67806.88;;;5.62;100.00
36354;BME280;22383;51.114;13.666;2024-01-25T02:12:36;67806.47;;;5.57;100.00
36354;BME280;22383;51.114;13.666;2024-01-25T02:15:04;67807.00;;;5.50;100.00
36354;BME280;22383;51.114;13.666;2024-01-25T02:17:31;67798.75;;;5.52;100.00
36354;BME280;22383;51.114;13.666;2024-01-25T02:19:58;67801.19;;;5.49;100.00
36354;BME280;22383;51.114;13.666;2024-01-25T02:22:27;67795.03;;;5.51;100.00
36354;BME280;22383;51.114;13.666;2024-01-25T02:24:55;67803.09;;;5.54;100.00
36354;BME280;22383;51.114;13.666;2024-01-25T02:27:22;67803.44;;;5.52;100.00
36354;BME280;22383;51.114;13.666;2024-01-25T02:29:49;67804.22;;;5.55;100.00
36354;BME280;22383;51.114;13.666;2024-01-25T02:32:17;67807.81;;;5.60;100.00
36354;BME280;22383;51.114;13.666;2024-01-25T02:34:44;67805.91;;;5.56;100.00
36354;BME280;22383;51.114;13.666;2024-01-25T02:37:11;67807.97;;;5.56;100.00
36354;BME280;22383;51.114;13.666;2024-01-25T02:39:40;67808.19;;;5.58;100.00
36354;BME280;22383;51.114;13.666;2024-01-25T02:42:07;67809.88;;;5.60;100.00
36354;BME280;22383;51.114;13.666;2024-01-25T02:44:34;67804.78;;;5.55;100.00
36354;BME280;22383;51.114;13.666;2024-01-25T02:47:01;67806.69;;;5.59;100.00
36354;BME280;22383;51.114;13.666;2024-01-25T02:49:29;67802.53;;;5.53;100.00
36354;BME280;22383;51.114;13.666;2024-01-25T02:51:56;67797.03;;;5.43;100.00
36354;BME280;22383;51.114;13.666;2024-01-25T02:54:24;67801.19;;;5.49;100.00
36354;BME280;22383;51.114;13.666;2024-01-25T02:56:51;67800.47;;;5.54;100.00
36354;BME280;22383;51.114;13.666;2024-01-25T02:59:18;67804.00;;;5.52;100.00
36354;BME280;22383;51.114;13.666;2024-01-25T03:01:46;67799.13;;;5.50;100.00
36354;BME280;22383;51.114;13.666;2024-01-25T03:04:14;67798.22;;;5.52;100.00
36354;BME280;22383;51.114;13.666;2024-01-25T03:06:41;67796.50;;;5.50;100.00
36354;BME280;22383;51.114;13.666;2024-01-25T03:09:09;67799.13;;;5.50;100.00
36354;BME280;22383;51.114;13.666;2024-01-25T03:11:36;67803.28;;;5.56;100.00
36354;BME280;22383;51.114;13.666;2024-01-25T03:14:04;67795.03;;;5.51;100.00
36354;BME280;22383;51.114;13.666;2024-01-25T03:16:31;67800.84;;;5.52;100.00
36354;BME280;22383;51.114;13.666;2024-01-25T03:18:58;67793.69;;;5.47;100.00
36354;BME280;22383;51.114;13.666;2024-01-25T03:21:26;67792.00;;;5.46;100.00
36354;BME280;22383;51.114;13.666;2024-01-25T03:23:53;67799.72;;;5.51;100.00
36354;BME280;22383;51.114;13.666;2024-01-25T03:26:20;67804.22;;;5.55;100.00
36354;BME280;22383;51.114;13.666;2024-01-25T03:28:47;67797.44;;;5.48;100.00
36354;BME280;22383;51.114;13.666;2024-01-25T03:31:14;67783.53;;;5.38;100.00
36354;BME280;22383;51.114;13.666;2024-01-25T03:33:41;67792.38;;;5.44;100.00
36354;BME280;22383;51.114;13.666;2024-01-25T03:36:09;67801.56;;;5.47;100.00
36354;BME280;22383;51.114;13.666;2024-01-25T03:38:36;67788.25;;;5.45;100.00
36354;BME280;22383;51.114;13.666;2024-01-25T03:41:03;67803.44;;;5.52;100.00
36354;BME280;22383;51.114;13.666;2024-01-25T03:43:30;67795.19;;;5.46;100.00
36354;BME280;22383;51.114;13.666;2024-01-25T03:46:09;67787.13;;;5.44;100.00
36354;BME280;22383;51.114;13.666;2024-01-25T03:48:36;67788.41;;;5.40;100.00
36354;BME280;22383;51.114;13.666;2024-01-25T03:51:04;67791.22;;;5.43;100.00
36354;BME280;22383;51.114;13.666;2024-01-25T03:53:31;67789.75;;;5.44;100.00
36354;BME280;22383;51.114;13.666;2024-01-25T03:55:58;67782.19;;;5.35;100.00
36354;BME280;22383;51.114;13.666;2024-01-25T03:58:25;67785.22;;;5.40;100.00
36354;BME280;22383;51.114;13.666;2024-01-25T04:00:53;67780.72;;;5.36;100.00
36354;BME280;22383;51.114;13.666;2024-01-25T04:03:20;67773.38;;;5.29;100.00
36354;BME280;22383;51.114;13.666;2024-01-25T04:05:48;67774.28;;;5.27;100.00
36354;BME280;22383;51.114;13.666;2024-01-25T04:08:16;67767.16;;;5.23;100.00
36354;BME280;22383;51.114;13.666;2024-01-25T04:10:43;67770.91;;;5.24;100.00
36354;BME280;22383;51.114;13.666;2024-01-25T04:13:10;67773.53;;;5.24;100.00
36354;BME280;22383;51.114;13.666;2024-01-25T04:15:38;67768.09;;;5.22;100.00
36354;BME280;22383;51.114;13.666;2024-01-25T04:18:05;67765.28;;;5.19;100.00
36354;BME280;22383;51.114;13.666;2024-01-25T04:20:32;67764.69;;;5.19;100.00
36354;BME280;22383;51.114;13.666;2024-01-25T04:23:01;67774.28;;;5.27;100.00
36354;BME280;22383;51.114;13.666;2024-01-25T04:25:29;67764.91;;;5.21;100.00
36354;BME280;22383;51.114;13.666;2024-01-25T04:28:00;67761.31;;;5.16;100.00
36354;BME280;22383;51.114;13.666;2024-01-25T04:30:29;67775.25;;;5.26;100.00
36354;BME280;22383;51.114;13.666;2024-01-25T04:32:58;67774.28;;;5.27;100.00
36354;BME280;22383;51.114;13.666;2024-01-25T04:35:26;67766.03;;;5.22;100.00
36354;BME280;22383;51.114;13.666;2024-01-25T04:37:53;67764.69;;;5.19;100.00
36354;BME280;22383;51.114;13.666;2024-01-25T04:40:21;67760.59;;;5.20;100.00
36354;BME280;22383;51.114;13.666;2024-01-25T04:42:48;67758.88;;;5.18;100.00
36354;BME280;22383;51.114;13.666;2024-01-25T04:45:15;67763.03;;;5.17;100.00
36354;BME280;22383;51.114;13.666;2024-01-25T04:47:43;67765.06;;;5.17;100.00
36354;BME280;22383;51.114;13.666;2024-01-25T04:50:10;67764.34;;;5.21;100.00
36354;BME280;22383;51.114;13.666;2024-01-25T04:52:38;67768.84;;;5.25;100.00
36354;BME280;22383;51.114;13.666;2024-01-25T04:55:05;67761.88;;;5.16;100.00
36354;BME280;22383;51.114;13.666;2024-01-25T04:57:33;67758.84;;;5.11;100.00
36354;BME280;22383;51.114;13.666;2024-01-25T05:00:00;67754.75;;;5.12;100.00
36354;BME280;22383;51.114;13.666;2024-01-25T05:02:27;67761.31;;;5.16;100.00
36354;BME280;22383;51.114;13.666;2024-01-25T05:04:54;67763.03;;;5.17;100.00
36354;BME280;22383;51.114;13.666;2024-01-25T05:07:22;67772.41;;;5.23;100.00
36354;BME280;22383;51.114;13.666;2024-01-25T05:09:56;67770.91;;;5.24;100.00
36354;BME280;22383;51.114;13.666;2024-01-25T05:12:24;67774.47;;;5.23;100.00
36354;BME280;22383;51.114;13.666;2024-01-25T05:14:51;67770.34;;;5.24;100.00
36354;BME280;22383;51.114;13.666;2024-01-25T05:17:18;67772.63;;;5.26;100.00
36354;BME280;22383;51.114;13.666;2024-01-25T05:19:45;67774.09;;;5.25;100.00
36354;BME280;22383;51.114;13.666;2024-01-25T05:22:13;67764.69;;;5.19;100.00
36354;BME280;22383;51.114;13.666;2024-01-25T05:24:40;67764.34;;;5.21;100.00
36354;BME280;22383;51.114;13.666;2024-01-25T05:27:07;67763.03;;;5.17;100.00
36354;BME280;22383;51.114;13.666;2024-01-25T05:29:34;67771.28;;;5.22;100.00
36354;BME280;22383;51.114;13.666;2024-01-25T05:32:02;67776.00;;;5.29;100.00
36354;BME280;22383;51.114;13.666;2024-01-25T05:34:29;67772.63;;;5.26;100.00
36354;BME280;22383;51.114;13.666;2024-01-25T05:36:56;67768.66;;;5.22;100.00
36354;BME280;22383;51.114;13.666;2024-01-25T05:39:23;67763.22;;;5.20;100.00
36354;BME280;22383;51.114;13.666;2024-01-25T05:41:50;67766.59;;;5.23;100.00
36354;BME280;22383;51.114;13.666;2024-01-25T05:44:17;67770.72;;;5.22;100.00
36354;BME280;22383;51.114;13.666;2024-01-25T05:46:45;67771.66;;;5.27;100.00
36354;BME280;22383;51.114;13.666;2024-01-25T05:49:12;67770.34;;;5.24;100.00
36354;BME280;22383;51.114;13.666;2024-01-25T05:51:39;67765.47;;;5.22;100.00
36354;BME280;22383;51.114;13.666;2024-01-25T05:54:07;67759.06;;;5.14;100.00
36354;BME280;22383;51.114;13.666;2024-01-25T05:56:34;67754.16;;;5.11;100.00
36354;BME280;22383;51.114;13.666;2024-01-25T05:59:01;67758.34;;;5.18;100.00
36354;BME280;22383;51.114;13.666;2024-01-25T06:01:28;67769.00;;;5.20;100.00
36354;BME280;22383;51.114;13.666;2024-01-25T06:03:56;67754.53;;;5.09;100.00
36354;BME280;22383;51.114;13.666;2024-01-25T06:06:23;67759.06;;;5.14;100.00
36354;BME280;22383;51.114;13.666;2024-01-25T06:08:50;67754.53;;;5.09;100.00
36354;BME280;22383;51.114;13.666;2024-01-25T06:11:32;67759.41;;;5.11;100.00
36354;BME280;22383;51.114;13.666;2024-01-25T06:14:00;67749.66;;;5.07;100.00
36354;BME280;22383;51.114;13.666;2024-01-25T06:16:27;67742.50;;;4.96;100.00
36354;BME280;22383;51.114;13.666;2024-01-25T06:18:55;67746.28;;;5.04;100.00
36354;BME280;22383;51.114;13.666;2024-01-25T06:21:22;67757.38;;;5.12;100.00
36354;BME280;22383;51.114;13.666;2024-01-25T06:23:49;67747.41;;;5.05;100.00
36354;BME280;22383;51.114;13.666;2024-01-25T06:26:16;67756.25;;;5.11;100.00
36354;BME280;22383;51.114;13.666;2024-01-25T06:28:43;67756.78;;;5.11;100.00
36354;BME280;22383;51.114;13.666;2024-01-25T06:31:11;67757.38;;;5.12;100.00
36354;BME280;22383;51.114;13.666;2024-01-25T06:33:41;67755.09;;;5.10;100.00
36354;BME280;22383;51.114;13.666;2024-01-25T06:36:08;67758.31;;;5.10;100.00
36354;BME280;22383;51.114;13.666;2024-01-25T06:38:35;67746.66;;;5.02;100.00
36354;BME280;22383;51.114;13.666;2024-01-25T06:41:03;67756.97;;;5.07;100.00
36354;BME280;22383;51.114;13.666;2024-01-25T06:43:30;67743.63;;;4.97;100.00
36354;BME280;22383;51.114;13.666;2024-01-25T06:45:57;67747.41;;;5.05;100.00
36354;BME280;22383;51.114;13.666;2024-01-25T06:48:24;67749.66;;;5.07;100.00
36354;BME280;22383;51.114;13.666;2024-01-25T06:50:52;67752.66;;;5.05;100.00
36354;BME280;22383;51.114;13.666;2024-01-25T06:53:20;67752.44;;;5.03;100.00
36354;BME280;22383;51.114;13.666;2024-01-25T06:55:48;67741.00;;;4.97;100.00
36354;BME280;22383;51.114;13.666;2024-01-25T06:58:15;67747.38;;;4.98;100.00
36354;BME280;22383;51.114;13.666;2024-01-25T07:00:42;67742.84;;;4.94;100.00
36354;BME280;22383;51.114;13.666;2024-01-25T07:03:12;67742.31;;;5.01;100.00
36354;BME280;22383;51.114;13.666;2024-01-25T07:05:40;67744.03;;;5.02;100.00
36354;BME280;22383;51.114;13.666;2024-01-25T07:08:07;67746.84;;;5.05;100.00
36354;BME280;22383;51.114;13.666;2024-01-25T07:10:40;67748.50;;;4.99;100.00
36354;BME280;22383;51.114;13.666;2024-01-25T07:13:07;67754.16;;;5.11;100.00
36354;BME280;22383;51.114;13.666;2024-01-25T07:15:34;67751.53;;;5.04;100.00
36354;BME280;22383;51.114;13.666;2024-01-25T07:18:02;67740.06;;;4.99;100.00
36354;BME280;22383;51.114;13.666;2024-01-25T07:20:29;67747.19;;;5.03;100.00
36354;BME280;22383;51.114;13.666;2024-01-25T07:22:57;67769.59;;;5.21;100.00
36354;BME280;22383;51.114;13.666;2024-01-25T07:25:24;67759.06;;;5.14;100.00
36354;BME280;22383;51.114;13.666;2024-01-25T07:27:51;67761.66;;;5.14;100.00
36354;BME280;22383;51.114;13.666;2024-01-25T07:30:18;67765.66;;;5.17;100.00
36354;BME280;22383;51.114;13.666;2024-01-25T07:32:45;67754.53;;;5.09;100.00
36354;BME280;22383;51.114;13.666;2024-01-25T07:35:13;67762.25;;;5.14;100.00
36354;BME280;22383;51.114;13.666;2024-01-25T07:37:40;67750.03;;;5.05;100.00
36354;BME280;22383;51.114;13.666;2024-01-25T07:40:08;67763.38;;;5.15;100.00
36354;BME280;22383;51.114;13.666;2024-01-25T07:42:37;67752.28;;;5.07;100.00
36354;BME280;22383;51.114;13.666;2024-01-25T07:45:05;67753.44;;;5.08;100.00
36354;BME280;22383;51.114;13.666;2024-01-25T07:47:32;67765.06;;;5.17;100.00
36354;BME280;22383;51.114;13.666;2024-01-25T07:49:59;67753.06;;;5.10;100.00
36354;BME280;22383;51.114;13.666;2024-01-25T07:52:26;67762.06;;;5.19;100.00
36354;BME280;22383;51.114;13.666;2024-01-25T07:54:54;67759.06;;;5.14;100.00
36354;BME280;22383;51.114;13.666;2024-01-25T07:57:21;67762.44;;;5.17;100.00
36354;BME280;22383;51.114;13.666;2024-01-25T07:59:48;67759.81;;;5.17;100.00
36354;BME280;22383;51.114;13.666;2024-01-25T08:02:16;67764.50;;;5.16;100.00
36354;BME280;22383;51.114;13.666;2024-01-25T08:04:47;67766.19;;;5.18;100.00
36354;BME280;22383;51.114;13.666;2024-01-25T08:07:15;67760.41;;;5.17;100.00
36354;BME280;22383;51.114;13.666;2024-01-25T08:09:42;67768.66;;;5.22;100.00
36354;BME280;22383;51.114;13.666;2024-01-25T08:12:10;67771.28;;;5.22;100.00
36354;BME280;22383;51.114;13.666;2024-01-25T08:14:38;67765.47;;;5.22;100.00
36354;BME280;22383;51.114;13.666;2024-01-25T08:17:05;67764.91;;;5.21;100.00
36354;BME280;22383;51.114;13.666;2024-01-25T08:19:32;67765.47;;;5.22;100.00
36354;BME280;22383;51.114;13.666;2024-01-25T08:22:00;67767.53;;;5.21;100.00
36354;BME280;22383;51.114;13.666;2024-01-25T08:24:27;67770.34;;;5.24;100.00
36354;BME280;22383;51.114;13.666;2024-01-25T08:26:54;67767.16;;;5.23;100.00
36354;BME280;22383;51.114;13.666;2024-01-25T08:29:21;67766.97;;;5.21;100.00
36354;BME280;22383;51.114;13.666;2024-01-25T08:31:48;67774.66;;;5.25;100.00
36354;BME280;22383;51.114;13.666;2024-01-25T08:34:15;67768.28;;;5.24;100.00
36354;BME280;22383;51.114;13.666;2024-01-25T08:36:43;67772.03;;;5.25;100.00
36354;BME280;22383;51.114;13.666;2024-01-25T08:39:10;67775.59;;;5.24;100.00
36354;BME280;22383;51.114;13.666;2024-01-25T08:41:37;67769.78;;;5.23;100.00
36354;BME280;22383;51.114;13.666;2024-01-25T08:44:08;67764.34;;;5.21;100.00
36354;BME280;22383;51.114;13.666;2024-01-25T08:46:35;67765.09;;;5.24;100.00
36354;BME280;22383;51.114;13.666;2024-01-25T08:49:02;67770.16;;;5.21;100.00
36354;BME280;22383;51.114;13.666;2024-01-25T08:51:35;67758.34;;;5.18;100.00
36354;BME280;22383;51.114;13.666;2024-01-25T08:54:03;67765.06;;;5.17;100.00
36354;BME280;22383;51.114;13.666;2024-01-25T08:56:30;67757.94;;;5.13;100.00
36354;BME280;22383;51.114;13.666;2024-01-25T08:58:58;67754.53;;;5.09;100.00
36354;BME280;22383;51.114;13.666;2024-01-25T09:01:25;67756.25;;;5.11;100.00
36354;BME280;22383;51.114;13.666;2024-01-25T09:03:52;67759.41;;;5.11;100.00
36354;BME280;22383;51.114;13.666;2024-01-25T09:06:20;67757.94;;;5.13;100.00
36354;BME280;22383;51.114;13.666;2024-01-25T09:08:47;67759.25;;;5.16;100.00
36354;BME280;22383;51.114;13.666;2024-01-25T09:11:14;67764.13;;;5.18;100.00
36354;BME280;22383;51.114;13.666;2024-01-25T09:13:42;67769.78;;;5.23;100.00
36354;BME280;22383;51.114;13.666;2024-01-25T09:16:13;67772.63;;;5.26;100.00
36354;BME280;22383;51.114;13.666;2024-01-25T09:18:42;67766.22;;;5.25;100.00
36354;BME280;22383;51.114;13.666;2024-01-25T09:21:09;67772.81;;;5.28;100.00
36354;BME280;22383;51.114;13.666;2024-01-25T09:23:37;67774.09;;;5.25;100.00
36354;BME280;22383;51.114;13.666;2024-01-25T09:26:04;67777.91;;;5.33;100.00
36354;BME280;22383;51.114;13.666;2024-01-25T09:28:31;67771.09;;;5.27;100.00
36354;BME280;22383;51.114;13.666;2024-01-25T09:30:58;67770.91;;;5.24;100.00
36354;BME280;22383;51.114;13.666;2024-01-25T09:33:26;67763.97;;;5.23;100.00
36354;BME280;22383;51.114;13.666;2024-01-25T09:35:53;67772.25;;;5.28;100.00
36354;BME280;22383;51.114;13.666;2024-01-25T09:38:21;67773.94;;;5.29;100.00
36354;BME280;22383;51.114;13.666;2024-01-25T09:40:49;67783.88;;;5.36;100.00
36354;BME280;22383;51.114;13.666;2024-01-25T09:43:17;67787.28;;;5.39;100.00
36354;BME280;22383;51.114;13.666;2024-01-25T09:45:48;67781.44;;;5.32;100.00
36354;BME280;22383;51.114;13.666;2024-01-25T09:48:16;67780.53;;;5.33;100.00
36354;BME280;22383;51.114;13.666;2024-01-25T09:50:47;67784.47;;;5.37;100.00
36354;BME280;22383;51.114;13.666;2024-01-25T09:53:22;67784.81;;;5.35;100.00
36354;BME280;22383;51.114;13.666;2024-01-25T09:55:58;67795.19;;;5.46;100.00
36354;BME280;22383;51.114;13.666;2024-01-25T09:58:42;67787.66;;;5.37;100.00
36354;BME280;22383;51.114;13.666;2024-01-25T10:01:13;67782.00;;;5.32;100.00
36354;BME280;22383;51.114;13.666;2024-01-25T10:03:47;67777.91;;;5.33;100.00
36354;BME280;22383;51.114;13.666;2024-01-25T10:06:15;67778.06;;;5.28;100.00
36354;BME280;22383;51.114;13.666;2024-01-25T10:08:44;67777.91;;;5.33;100.00
36354;BME280;22383;51.114;13.666;2024-01-25T10:11:11;67777.91;;;5.33;100.00
36354;BME280;22383;51.114;13.666;2024-01-25T10:13:42;67777.91;;;5.33;100.00
36354;BME280;22383;51.114;13.666;2024-01-25T10:16:14;67778.44;;;5.34;100.00
36354;BME280;22383;51.114;13.666;2024-01-25T10:18:43;67780.53;;;5.33;100.00
36354;BME280;22383;51.114;13.666;2024-01-25T10:21:13;67783.88;;;5.36;100.00
36354;BME280;22383;51.114;13.666;2024-01-25T10:23:44;67789.91;;;5.39;100.00
36354;BME280;22383;51.114;13.666;2024-01-25T10:26:13;67792.16;;;5.41;100.00
36354;BME280;22383;51.114;13.666;2024-01-25T10:28:40;67787.13;;;5.44;100.00
36354;BME280;22383;51.114;13.666;2024-01-25T10:31:07;67797.44;;;5.48;100.00
36354;BME280;22383;51.114;13.666;2024-01-25T10:33:38;67803.09;;;5.54;100.00
36354;BME280;22383;51.114;13.666;2024-01-25T10:36:08;67795.94;;;5.49;100.00
36354;BME280;22383;51.114;13.666;2024-01-25T10:38:36;67810.63;;;5.63;100.00
36354;BME280;22383;51.114;13.666;2024-01-25T10:41:05;67814.38;;;5.64;100.00
36354;BME280;22383;51.114;13.666;2024-01-25T10:43:33;67813.63;;;5.61;100.00
36354;BME280;22383;51.114;13.666;2024-01-25T10:46:00;67830.41;;;5.81;100.00
36354;BME280;22383;51.114;13.666;2024-01-25T10:48:31;67818.34;;;5.67;100.00
36354;BME280;22383;51.114;13.666;2024-01-25T10:50:59;67839.44;;;5.89;100.00
36354;BME280;22383;51.114;13.666;2024-01-25T10:53:32;67828.16;;;5.79;100.00
36354;BME280;22383;51.114;13.666;2024-01-25T10:56:00;67820.03;;;5.69;100.00
36354;BME280;22383;51.114;13.666;2024-01-25T10:58:32;67795.94;;;5.49;100.00
36354;BME280;22383;51.114;13.666;2024-01-25T11:01:09;67795.19;;;5.46;100.00
36354;BME280;22383;51.114;13.666;2024-01-25T11:03:42;67779.56;;;5.35;100.00
36354;BME280;22383;51.114;13.666;2024-01-25T11:06:10;67786.50;;;5.36;100.00
36354;BME280;22383;51.114;13.666;2024-01-25T11:08:38;67794.25;;;5.48;100.00
36354;BME280;22383;51.114;13.666;2024-01-25T11:11:07;67799.91;;;5.53;100.00
36354;BME280;22383;51.114;13.666;2024-01-25T11:13:41;67811.00;;;5.61;100.00
36354;BME280;22383;51.114;13.666;2024-01-25T11:16:13;67802.72;;;5.56;100.00
36354;BME280;22383;51.114;13.666;2024-01-25T11:19:20;67789.75;;;5.44;100.00
36354;BME280;22383;51.114;13.666;2024-01-25T11:21:50;67805.16;;;5.53;100.00
36354;BME280;22383;51.114;13.666;2024-01-25T11:26:49;67819.66;;;5.71;100.00
36354;BME280;22383;51.114;13.666;2024-01-25T11:29:18;67803.28;;;5.56;100.00
36354;BME280;22383;51.114;13.666;2024-01-25T11:31:46;67792.00;;;5.46;100.00
36354;BME280;22383;51.114;13.666;2024-01-25T11:34:14;67806.47;;;5.57;100.00
36354;BME280;22383;51.114;13.666;2024-01-25T11:36:43;67807.41;;;5.55;100.00
36354;BME280;22383;51.114;13.666;2024-01-25T11:39:14;67812.13;;;5.62;100.00
36354;BME280;22383;51.114;13.666;2024-01-25T11:41:44;67814.75;;;5.62;100.00
36354;BME280;22383;51.114;13.666;2024-01-25T11:44:12;67817.63;;;5.72;100.00
36354;BME280;22383;51.114;13.666;2024-01-25T11:46:40;67826.25;;;5.75;100.00
36354;BME280;22383;51.114;13.666;2024-01-25T11:49:08;67824.53;;;5.73;100.00
36354;BME280;22383;51.114;13.666;2024-01-25T11:51:35;67845.06;;;5.94;100.00
36354;BME280;22383;51.114;13.666;2024-01-25T11:54:03;67844.50;;;5.94;100.00
36354;BME280;22383;51.114;13.666;2024-01-25T11:56:36;67889.75;;;6.35;100.00
36354;BME280;22383;51.114;13.666;2024-01-25T11:59:07;67908.19;;;6.49;100.00
36354;BME280;22383;51.114;13.666;2024-01-25T12:01:35;67939.25;;;6.77;100.00
36354;BME280;22383;51.114;13.666;2024-01-25T12:04:04;67937.19;;;6.78;100.00
36354;BME280;22383;51.114;13.666;2024-01-25T12:06:31;67903.09;;;6.44;100.00
36354;BME280;22383;51.114;13.666;2024-01-25T12:09:09;67854.69;;;6.03;100.00
36354;BME280;22383;51.114;13.666;2024-01-25T12:11:36;67840.38;;;5.87;100.00
36354;BME280;22383;51.114;13.666;2024-01-25T12:14:05;67839.22;;;5.86;100.00
36354;BME280;22383;51.114;13.666;2024-01-25T12:16:32;67846.94;;;5.91;100.00
36354;BME280;22383;51.114;13.666;2024-01-25T12:19:03;67843.19;;;5.90;100.00
36354;BME280;22383;51.114;13.666;2024-01-25T12:21:34;67849.06;;;5.98;100.00
36354;BME280;22383;51.114;13.666;2024-01-25T12:24:02;67847.94;;;5.97;100.00
36354;BME280;22383;51.114;13.666;2024-01-25T12:26:34;67858.09;;;6.06;100.00
36354;BME280;22383;51.114;13.666;2024-01-25T12:29:01;67859.59;;;6.05;100.00
36354;BME280;22383;51.114;13.666;2024-01-25T12:31:30;67854.13;;;6.02;100.00
36354;BME280;22383;51.114;13.666;2024-01-25T12:34:00;67862.97;;;6.08;100.00
36354;BME280;22383;51.114;13.666;2024-01-25T12:36:28;67858.47;;;6.04;100.00
36354;BME280;22383;51.114;13.666;2024-01-25T12:38:55;67852.25;;;5.98;100.00
36354;BME280;22383;51.114;13.666;2024-01-25T12:41:22;67849.06;;;5.98;100.00
36354;BME280;22383;51.114;13.666;2024-01-25T12:43:50;67846.38;;;5.91;100.00
36354;BME280;22383;51.114;13.666;2024-01-25T12:46:19;67835.13;;;5.87;100.00
36354;BME280;22383;51.114;13.666;2024-01-25T12:48:54;67837.34;;;5.82;100.00
36354;BME280;22383;51.114;13.666;2024-01-25T12:51:24;67827.00;;;5.78;100.00
36354;BME280;22383;51.114;13.666;2024-01-25T12:53:52;67823.25;;;5.77;100.00
36354;BME280;22383;51.114;13.666;2024-01-25T12:56:20;67831.13;;;5.77;100.00
36354;BME280;22383;51.114;13.666;2024-01-25T12:58:47;67824.75;;;5.76;100.00